createdAt,value
2023-04-08T00:02:17.193Z,9.10
2023-04-08T00:07:19.063Z,9.10
2023-04-08T00:12:21.186Z,9.10
2023-04-08T00:17:22.991Z,9.10
2023-04-08T00:22:24.772Z,9.10
2023-04-08T00:27:26.554Z,9.10
2023-04-08T00:32:31.177Z,9.10
2023-04-08T00:37:36.048Z,9.10
2023-04-08T00:42:38.024Z,9.00
2023-04-08T00:47:40.144Z,9.10
2023-04-08T00:52:41.911Z,9.10
2023-04-08T00:57:44.207Z,9.10
2023-04-08T01:02:59.614Z,9.00
2023-04-08T01:08:05.365Z,9.00
2023-04-08T01:13:11.968Z,9.00
2023-04-08T01:18:16.233Z,9.00
2023-04-08T01:23:29.814Z,8.90
2023-04-08T01:28:33.752Z,8.90
2023-04-08T01:33:37.142Z,9.00
2023-04-08T01:38:39.409Z,8.90
2023-04-08T01:43:44.597Z,8.90
2023-04-08T01:48:47.154Z,9.00
2023-04-08T01:53:48.967Z,8.90
2023-04-08T01:58:53.316Z,8.90
2023-04-08T02:03:57.609Z,8.90
2023-04-08T02:09:01.849Z,8.90
2023-04-08T02:14:03.665Z,8.90
2023-04-08T02:19:16.702Z,8.80
2023-04-08T02:24:19.467Z,8.90
2023-04-08T02:29:21.834Z,8.90
2023-04-08T02:34:25.397Z,8.80
2023-04-08T02:39:33.551Z,8.80
2023-04-08T02:44:35.337Z,8.80
2023-04-08T02:49:37.198Z,8.70
2023-04-08T02:54:38.955Z,8.80
2023-04-08T02:59:41.019Z,8.70
2023-04-08T03:04:42.891Z,8.70
2023-04-08T03:09:44.803Z,8.70
2023-04-08T03:14:46.548Z,8.80
2023-04-08T03:19:48.348Z,8.80
2023-04-08T03:24:50.374Z,8.70
2023-04-08T03:29:53.230Z,8.70
2023-04-08T03:34:55.345Z,8.80
2023-04-08T03:39:57.172Z,8.70
2023-04-08T03:44:59.084Z,8.70
2023-04-08T03:50:00.856Z,8.80
2023-04-08T03:55:02.765Z,8.70
2023-04-08T04:00:05.262Z,8.80
2023-04-08T04:05:07.723Z,8.70
2023-04-08T04:10:11.155Z,8.70
2023-04-08T04:15:13.086Z,8.70
2023-04-08T04:20:15.116Z,8.70
2023-04-08T04:25:18.244Z,8.70
2023-04-08T04:30:20.277Z,8.70
2023-04-08T04:35:22.402Z,8.70
2023-04-08T04:40:24.223Z,8.70
2023-04-08T04:45:25.999Z,8.70
2023-04-08T04:50:27.805Z,8.70
2023-04-08T04:55:29.650Z,8.70
2023-04-08T05:00:31.528Z,8.80
2023-04-08T05:05:33.293Z,8.70
2023-04-08T05:10:35.255Z,8.80
2023-04-08T05:15:37.057Z,8.60
2023-04-08T05:20:39.303Z,8.60
2023-04-08T05:25:41.098Z,8.60
2023-04-08T05:30:43.028Z,8.60
2023-04-08T05:35:45.226Z,8.70
2023-04-08T05:40:47.002Z,8.70
2023-04-08T05:45:48.845Z,8.60
2023-04-08T05:50:51.008Z,8.70
2023-04-08T05:55:52.765Z,8.80
2023-04-08T06:00:55.671Z,8.70
2023-04-08T06:05:57.725Z,8.60
2023-04-08T06:10:59.614Z,8.60
2023-04-08T06:16:13.137Z,8.90
2023-04-08T06:21:14.944Z,8.90
2023-04-08T06:26:16.973Z,8.90
2023-04-08T06:31:18.791Z,9.10
2023-04-08T06:36:20.554Z,9.10
2023-04-08T06:41:22.410Z,9.00
2023-04-08T06:46:24.800Z,9.00
2023-04-08T06:51:27.920Z,9.10
2023-04-08T06:56:29.738Z,9.10
2023-04-08T07:01:34.466Z,9.20
2023-04-08T07:06:36.383Z,9.40
2023-04-08T07:11:38.225Z,9.50
2023-04-08T07:16:39.990Z,9.50
2023-04-08T07:21:41.792Z,9.60
2023-04-08T07:26:43.577Z,9.70
2023-04-08T07:31:45.362Z,9.70
2023-04-08T07:36:47.144Z,9.80
2023-04-08T07:41:49.135Z,9.80
2023-04-08T07:46:52.011Z,9.80
2023-04-08T07:51:53.774Z,9.80
2023-04-08T07:56:55.704Z,9.80
2023-04-08T08:01:57.704Z,10.00
2023-04-08T08:06:59.564Z,10.10
2023-04-08T08:12:01.544Z,10.00
2023-04-08T08:17:04.331Z,10.30
2023-04-08T08:22:06.206Z,10.30
2023-04-08T08:27:13.488Z,10.40
2023-04-08T08:32:15.300Z,10.50
2023-04-08T08:37:17.141Z,10.80
2023-04-08T08:42:26.399Z,10.80
2023-04-08T08:47:28.334Z,10.80
2023-04-08T08:52:30.502Z,10.90
2023-04-08T08:57:32.230Z,11.10
2023-04-08T09:02:34.502Z,11.20
2023-04-08T09:07:37.928Z,11.20
2023-04-08T09:12:56.452Z,11.30
2023-04-08T09:17:58.656Z,11.50
2023-04-08T09:23:02.081Z,11.80
2023-04-08T09:28:03.892Z,11.70
2023-04-08T09:33:07.361Z,12.20
2023-04-08T09:38:09.669Z,12.60
2023-04-08T09:43:13.583Z,12.50
2023-04-08T09:48:24.301Z,12.30
2023-04-08T09:53:47.373Z,12.20
2023-04-08T09:58:54.638Z,12.00
2023-04-08T10:03:57.618Z,12.00
2023-04-08T10:08:59.888Z,11.80
2023-04-08T10:14:02.320Z,11.90
2023-04-08T10:19:41.292Z,11.90
2023-04-08T10:25:17.854Z,12.10
2023-04-08T10:30:28.955Z,12.10
2023-04-08T10:35:36.550Z,12.20
2023-04-08T10:40:39.514Z,12.30
2023-04-08T10:45:42.043Z,12.30
2023-04-08T10:50:52.036Z,12.50
2023-04-08T10:55:54.276Z,13.10
2023-04-08T11:00:56.381Z,13.80
2023-04-08T11:05:59.040Z,13.70
2023-04-08T11:11:05.573Z,13.70
2023-04-08T11:16:17.655Z,13.40
2023-04-08T11:21:20.239Z,13.40
2023-04-08T11:26:22.537Z,12.90
2023-04-08T11:31:25.124Z,12.80
2023-04-08T11:36:30.195Z,13.30
2023-04-08T11:41:40.505Z,13.40
2023-04-08T11:46:55.435Z,13.60
2023-04-08T11:51:59.242Z,13.10
2023-04-08T11:57:03.014Z,13.00
2023-04-08T12:02:05.441Z,13.00
2023-04-08T12:07:07.613Z,13.10
2023-04-08T12:12:09.378Z,13.40
2023-04-08T12:17:11.463Z,13.20
2023-04-08T12:22:13.524Z,13.00
2023-04-08T12:27:15.498Z,13.60
2023-04-08T12:32:17.337Z,13.80
2023-04-08T12:37:20.661Z,14.20
2023-04-08T12:42:22.683Z,14.60
2023-04-08T12:47:26.118Z,14.60
2023-04-08T12:52:28.169Z,15.80
2023-04-08T12:57:32.005Z,15.80
2023-04-08T13:02:33.932Z,16.30
2023-04-08T13:07:35.799Z,16.10
2023-04-08T13:12:40.147Z,15.50
2023-04-08T13:17:42.313Z,14.90
2023-04-08T13:22:44.128Z,14.30
2023-04-08T13:27:46.288Z,14.30
2023-04-08T13:32:48.121Z,14.60
2023-04-08T13:37:50.003Z,15.70
2023-04-08T13:42:51.764Z,16.30
2023-04-08T13:47:53.619Z,16.30
2023-04-08T13:52:55.459Z,17.10
2023-04-08T13:57:57.424Z,17.90
2023-04-08T14:02:59.254Z,16.90
2023-04-08T14:08:01.025Z,16.10
2023-04-08T14:13:02.782Z,15.80
2023-04-08T14:18:04.573Z,15.20
2023-04-08T14:23:06.360Z,15.10
2023-04-08T14:28:08.360Z,15.20
2023-04-08T14:33:10.189Z,16.20
2023-04-08T14:38:12.306Z,17.50
2023-04-08T14:43:14.112Z,17.80
2023-04-08T14:48:16.009Z,16.50
2023-04-08T14:53:17.891Z,15.90
2023-04-08T14:58:22.505Z,15.40
2023-04-08T15:03:24.416Z,16.40
2023-04-08T15:08:26.398Z,18.40
2023-04-08T15:13:28.156Z,19.30
2023-04-08T15:18:29.894Z,19.80
2023-04-08T15:23:31.712Z,18.10
2023-04-08T15:28:33.462Z,16.80
2023-04-08T15:33:35.570Z,16.30
2023-04-08T15:38:37.457Z,16.30
2023-04-08T15:43:39.187Z,16.40
2023-04-08T15:48:42.705Z,16.50
2023-04-08T15:53:44.524Z,17.20
2023-04-08T15:58:46.461Z,17.20
2023-04-08T16:03:48.754Z,16.80
2023-04-08T16:08:50.892Z,17.00
2023-04-08T16:13:53.180Z,17.70
2023-04-08T16:18:56.590Z,17.90
2023-04-08T16:23:58.363Z,18.60
2023-04-08T16:29:00.172Z,17.90
2023-04-08T16:34:02.289Z,17.70
2023-04-08T16:39:04.116Z,18.60
2023-04-08T16:44:06.152Z,19.10
2023-04-08T16:49:07.941Z,19.10
2023-04-08T16:54:09.785Z,18.80
2023-04-08T16:59:12.907Z,18.80
2023-04-08T17:04:14.672Z,18.50
2023-04-08T17:09:16.959Z,17.50
2023-04-08T17:14:18.918Z,16.80
2023-04-08T17:19:21.481Z,16.60
2023-04-08T17:24:23.277Z,16.30
2023-04-08T17:29:25.529Z,15.60
2023-04-08T17:34:27.670Z,15.60
2023-04-08T17:39:30.575Z,15.40
2023-04-08T17:44:32.386Z,15.30
2023-04-08T17:49:34.266Z,15.20
2023-04-08T17:54:36.021Z,15.00
2023-04-08T17:59:37.866Z,15.10
2023-04-08T18:04:39.771Z,15.00
2023-04-08T18:09:41.957Z,15.00
2023-04-08T18:14:43.843Z,14.80
2023-04-08T18:19:45.734Z,14.60
2023-04-08T18:24:47.478Z,14.40
2023-04-08T18:29:49.243Z,14.20
2023-04-08T18:34:52.574Z,13.90
2023-04-08T18:39:54.739Z,13.70
2023-04-08T18:44:56.553Z,13.40
2023-04-08T18:49:58.717Z,13.50
2023-04-08T18:55:00.820Z,13.30
2023-04-08T19:00:02.792Z,13.30
2023-04-08T19:05:05.037Z,13.20
2023-04-08T19:10:07.594Z,13.20
2023-04-08T19:15:09.769Z,12.90
2023-04-08T19:20:11.928Z,12.70
2023-04-08T19:25:14.075Z,12.60
2023-04-08T19:30:16.051Z,12.50
2023-04-08T19:35:17.979Z,12.20
2023-04-08T19:40:20.061Z,12.00
2023-04-08T19:45:21.860Z,11.90
2023-04-08T19:50:23.746Z,11.80
2023-04-08T19:55:25.673Z,11.70
2023-04-08T20:00:28.490Z,11.50
2023-04-08T20:05:30.616Z,11.40
2023-04-08T20:10:32.432Z,11.30
2023-04-08T20:15:34.352Z,11.20
2023-04-08T20:20:36.137Z,11.10
2023-04-08T20:25:38.598Z,11.00
2023-04-08T20:30:40.843Z,11.00
2023-04-08T20:35:42.696Z,11.00
2023-04-08T20:40:45.585Z,10.80
2023-04-08T20:45:47.380Z,10.70
2023-04-08T20:50:49.398Z,10.60
2023-04-08T20:55:51.357Z,10.50
2023-04-08T21:00:53.357Z,10.50
2023-04-08T21:05:56.293Z,10.50
2023-04-08T21:10:58.170Z,10.20
2023-04-08T21:16:00.097Z,9.90
2023-04-08T21:21:02.177Z,9.90
2023-04-08T21:26:03.971Z,9.80
2023-04-08T21:31:12.946Z,9.70
2023-04-08T21:36:14.872Z,9.60
2023-04-08T21:41:17.268Z,9.60
2023-04-08T21:46:19.207Z,9.50
2023-04-08T21:51:21.352Z,9.40
2023-04-08T21:56:24.532Z,9.30
2023-04-08T22:01:26.669Z,9.40
2023-04-08T22:06:32.520Z,9.30
2023-04-08T22:11:34.613Z,9.10
2023-04-08T22:16:36.769Z,9.10
2023-04-08T22:21:38.644Z,9.00
2023-04-08T22:26:40.541Z,8.90
2023-04-08T22:31:42.371Z,8.90
2023-04-08T22:36:44.115Z,8.90
2023-04-08T22:41:46.836Z,8.80
2023-04-08T22:46:48.703Z,8.60
2023-04-08T22:51:50.924Z,8.60
2023-04-08T22:56:52.657Z,8.50
2023-04-08T23:01:54.619Z,8.50
2023-04-08T23:06:56.442Z,8.40
2023-04-08T23:11:58.516Z,8.40
2023-04-08T23:17:00.246Z,8.30
2023-04-08T23:22:02.120Z,8.10
2023-04-08T23:27:03.987Z,8.00
2023-04-08T23:32:05.881Z,8.30
2023-04-08T23:37:07.662Z,7.90
2023-04-08T23:42:09.424Z,7.90
2023-04-08T23:47:11.291Z,7.70
2023-04-08T23:52:13.061Z,7.80
2023-04-08T23:57:14.797Z,7.70
